sensor_id;sensor_type;location;lat;lon;timestamp;P1;durP1;ratioP1;P2;durP2;ratioP2
79668;SDS011;69136;52.614;6.976;2024-03-07T00:00:39;36.58;;;16.55;;
79668;SDS011;69136;52.614;6.976;2024-03-07T00:06:08;36.47;;;16.05;;
79668;SDS011;69136;52.614;6.976;2024-03-07T00:08:52;33.45;;;16.80;;
79668;SDS011;69136;52.614;6.976;2024-03-07T00:11:36;39.03;;;18.20;;
79668;SDS011;69136;52.614;6.976;2024-03-07T00:14:22;32.05;;;15.90;;
79668;SDS011;69136;52.614;6.976;2024-03-07T00:17:10;36.28;;;17.73;;
79668;SDS011;69136;52.614;6.976;2024-03-07T00:19:54;33.08;;;16.02;;
79668;SDS011;69136;52.614;6.976;2024-03-07T00:22:39;32.10;;;16.08;;
79668;SDS011;69136;52.614;6.976;2024-03-07T00:28:06;30.30;;;16.00;;
79668;SDS011;69136;52.614;6.976;2024-03-07T00:30:51;31.85;;;16.20;;
79668;SDS011;69136;52.614;6.976;2024-03-07T00:33:34;29.63;;;14.48;;
79668;SDS011;69136;52.614;6.976;2024-03-07T00:39:02;30.30;;;13.15;;
79668;SDS011;69136;52.614;6.976;2024-03-07T00:44:31;31.30;;;14.30;;
79668;SDS011;69136;52.614;6.976;2024-03-07T00:47:15;29.42;;;14.55;;
79668;SDS011;69136;52.614;6.976;2024-03-07T00:50:01;25.05;;;12.75;;
79668;SDS011;69136;52.614;6.976;2024-03-07T00:52:45;26.65;;;14.82;;
79668;SDS011;69136;52.614;6.976;2024-03-07T00:55:29;31.38;;;15.77;;
79668;SDS011;69136;52.614;6.976;2024-03-07T00:58:14;26.40;;;13.95;;
79668;SDS011;69136;52.614;6.976;2024-03-07T01:00:58;26.50;;;13.70;;
79668;SDS011;69136;52.614;6.976;2024-03-07T01:03:42;26.30;;;13.48;;
79668;SDS011;69136;52.614;6.976;2024-03-07T01:06:26;27.17;;;13.63;;
79668;SDS011;69136;52.614;6.976;2024-03-07T01:09:10;24.25;;;13.82;;
79668;SDS011;69136;52.614;6.976;2024-03-07T01:11:58;26.20;;;13.55;;
79668;SDS011;69136;52.614;6.976;2024-03-07T01:14:48;23.77;;;12.52;;
79668;SDS011;69136;52.614;6.976;2024-03-07T01:17:32;23.95;;;12.82;;
79668;SDS011;69136;52.614;6.976;2024-03-07T01:20:16;29.77;;;15.07;;
79668;SDS011;69136;52.614;6.976;2024-03-07T01:23:00;25.58;;;12.18;;
79668;SDS011;69136;52.614;6.976;2024-03-07T01:25:45;26.30;;;13.23;;
79668;SDS011;69136;52.614;6.976;2024-03-07T01:28:28;23.48;;;13.20;;
79668;SDS011;69136;52.614;6.976;2024-03-07T01:31:14;26.65;;;14.32;;
79668;SDS011;69136;52.614;6.976;2024-03-07T01:33:57;25.30;;;12.20;;
79668;SDS011;69136;52.614;6.976;2024-03-07T01:36:42;23.63;;;12.95;;
79668;SDS011;69136;52.614;6.976;2024-03-07T01:39:26;26.67;;;13.80;;
79668;SDS011;69136;52.614;6.976;2024-03-07T01:44:54;27.05;;;12.38;;
79668;SDS011;69136;52.614;6.976;2024-03-07T01:47:38;25.10;;;13.30;;
79668;SDS011;69136;52.614;6.976;2024-03-07T01:50:22;26.70;;;12.75;;
79668;SDS011;69136;52.614;6.976;2024-03-07T01:53:06;22.33;;;11.77;;
79668;SDS011;69136;52.614;6.976;2024-03-07T01:55:53;22.52;;;11.60;;
79668;SDS011;69136;52.614;6.976;2024-03-07T01:58:38;23.60;;;13.27;;
79668;SDS011;69136;52.614;6.976;2024-03-07T02:01:22;22.58;;;13.30;;
79668;SDS011;69136;52.614;6.976;2024-03-07T02:04:07;22.30;;;12.50;;
79668;SDS011;69136;52.614;6.976;2024-03-07T02:06:52;20.65;;;11.85;;
79668;SDS011;69136;52.614;6.976;2024-03-07T02:09:37;23.00;;;11.82;;
79668;SDS011;69136;52.614;6.976;2024-03-07T02:12:22;24.60;;;12.60;;
79668;SDS011;69136;52.614;6.976;2024-03-07T02:15:08;23.67;;;12.38;;
79668;SDS011;69136;52.614;6.976;2024-03-07T02:17:53;23.02;;;12.13;;
79668;SDS011;69136;52.614;6.976;2024-03-07T02:20:37;21.98;;;11.77;;
79668;SDS011;69136;52.614;6.976;2024-03-07T02:23:21;25.60;;;11.93;;
79668;SDS011;69136;52.614;6.976;2024-03-07T02:26:05;21.83;;;12.65;;
79668;SDS011;69136;52.614;6.976;2024-03-07T02:28:50;24.35;;;13.88;;
79668;SDS011;69136;52.614;6.976;2024-03-07T02:31:34;20.65;;;12.02;;
79668;SDS011;69136;52.614;6.976;2024-03-07T02:34:22;26.63;;;13.25;;
79668;SDS011;69136;52.614;6.976;2024-03-07T02:37:06;24.23;;;11.77;;
79668;SDS011;69136;52.614;6.976;2024-03-07T02:39:52;26.58;;;13.45;;
79668;SDS011;69136;52.614;6.976;2024-03-07T02:45:20;22.42;;;12.38;;
79668;SDS011;69136;52.614;6.976;2024-03-07T02:48:05;24.48;;;12.68;;
79668;SDS011;69136;52.614;6.976;2024-03-07T02:50:52;21.88;;;11.95;;
79668;SDS011;69136;52.614;6.976;2024-03-07T02:53:36;23.02;;;11.95;;
79668;SDS011;69136;52.614;6.976;2024-03-07T02:56:21;24.85;;;12.52;;
79668;SDS011;69136;52.614;6.976;2024-03-07T02:59:05;25.83;;;12.65;;
79668;SDS011;69136;52.614;6.976;2024-03-07T03:01:50;27.00;;;14.38;;
79668;SDS011;69136;52.614;6.976;2024-03-07T03:04:34;23.17;;;11.80;;
79668;SDS011;69136;52.614;6.976;2024-03-07T03:07:18;26.45;;;12.85;;
79668;SDS011;69136;52.614;6.976;2024-03-07T03:10:02;24.63;;;13.52;;
79668;SDS011;69136;52.614;6.976;2024-03-07T03:12:52;24.35;;;12.55;;
79668;SDS011;69136;52.614;6.976;2024-03-07T03:15:37;22.50;;;12.10;;
79668;SDS011;69136;52.614;6.976;2024-03-07T03:18:22;26.17;;;12.52;;
79668;SDS011;69136;52.614;6.976;2024-03-07T03:21:07;26.58;;;12.93;;
79668;SDS011;69136;52.614;6.976;2024-03-07T03:23:51;24.70;;;13.38;;
79668;SDS011;69136;52.614;6.976;2024-03-07T03:26:37;23.10;;;12.13;;
79668;SDS011;69136;52.614;6.976;2024-03-07T03:29:21;22.27;;;12.15;;
79668;SDS011;69136;52.614;6.976;2024-03-07T03:32:05;22.52;;;12.63;;
79668;SDS011;69136;52.614;6.976;2024-03-07T03:34:49;23.30;;;12.20;;
79668;SDS011;69136;52.614;6.976;2024-03-07T03:37:33;24.20;;;12.10;;
79668;SDS011;69136;52.614;6.976;2024-03-07T03:40:17;22.30;;;11.32;;
79668;SDS011;69136;52.614;6.976;2024-03-07T03:43:02;24.10;;;12.15;;
79668;SDS011;69136;52.614;6.976;2024-03-07T03:45:46;22.80;;;11.65;;
79668;SDS011;69136;52.614;6.976;2024-03-07T03:48:31;20.60;;;11.73;;
79668;SDS011;69136;52.614;6.976;2024-03-07T03:51:17;23.73;;;11.20;;
79668;SDS011;69136;52.614;6.976;2024-03-07T03:54:01;20.85;;;11.95;;
79668;SDS011;69136;52.614;6.976;2024-03-07T03:56:45;20.60;;;11.13;;
79668;SDS011;69136;52.614;6.976;2024-03-07T03:59:29;21.65;;;11.32;;
79668;SDS011;69136;52.614;6.976;2024-03-07T04:02:14;17.77;;;10.52;;
79668;SDS011;69136;52.614;6.976;2024-03-07T04:04:58;21.90;;;11.57;;
79668;SDS011;69136;52.614;6.976;2024-03-07T04:07:43;19.52;;;10.07;;
79668;SDS011;69136;52.614;6.976;2024-03-07T04:10:27;22.73;;;11.55;;
79668;SDS011;69136;52.614;6.976;2024-03-07T04:13:11;20.80;;;10.65;;
79668;SDS011;69136;52.614;6.976;2024-03-07T04:15:55;21.17;;;12.13;;
79668;SDS011;69136;52.614;6.976;2024-03-07T04:18:40;18.40;;;10.00;;
79668;SDS011;69136;52.614;6.976;2024-03-07T04:21:24;20.60;;;10.90;;
79668;SDS011;69136;52.614;6.976;2024-03-07T04:24:09;19.70;;;10.48;;
79668;SDS011;69136;52.614;6.976;2024-03-07T04:26:53;19.48;;;9.52;;
79668;SDS011;69136;52.614;6.976;2024-03-07T04:29:37;22.40;;;12.32;;
79668;SDS011;69136;52.614;6.976;2024-03-07T04:32:21;15.68;;;8.98;;
79668;SDS011;69136;52.614;6.976;2024-03-07T04:37:51;19.30;;;9.35;;
79668;SDS011;69136;52.614;6.976;2024-03-07T04:40:37;22.48;;;10.13;;
79668;SDS011;69136;52.614;6.976;2024-03-07T04:43:22;19.60;;;10.43;;
79668;SDS011;69136;52.614;6.976;2024-03-07T04:46:06;18.05;;;8.70;;
79668;SDS011;69136;52.614;6.976;2024-03-07T04:48:50;23.88;;;10.35;;
79668;SDS011;69136;52.614;6.976;2024-03-07T04:51:34;21.00;;;11.35;;
79668;SDS011;69136;52.614;6.976;2024-03-07T04:54:18;18.20;;;9.85;;
79668;SDS011;69136;52.614;6.976;2024-03-07T04:57:03;20.50;;;10.18;;
79668;SDS011;69136;52.614;6.976;2024-03-07T04:59:47;17.35;;;9.18;;
79668;SDS011;69136;52.614;6.976;2024-03-07T05:02:32;20.85;;;10.88;;
79668;SDS011;69136;52.614;6.976;2024-03-07T05:05:16;17.00;;;10.18;;
79668;SDS011;69136;52.614;6.976;2024-03-07T05:08:05;20.40;;;9.98;;
79668;SDS011;69136;52.614;6.976;2024-03-07T05:10:49;18.50;;;9.20;;
79668;SDS011;69136;52.614;6.976;2024-03-07T05:13:36;19.50;;;9.80;;
79668;SDS011;69136;52.614;6.976;2024-03-07T05:16:20;14.52;;;8.30;;
79668;SDS011;69136;52.614;6.976;2024-03-07T05:19:04;20.75;;;10.20;;
79668;SDS011;69136;52.614;6.976;2024-03-07T05:21:49;17.02;;;8.70;;
79668;SDS011;69136;52.614;6.976;2024-03-07T05:24:34;18.48;;;9.38;;
79668;SDS011;69136;52.614;6.976;2024-03-07T05:27:18;19.30;;;9.23;;
79668;SDS011;69136;52.614;6.976;2024-03-07T05:30:02;16.38;;;8.75;;
79668;SDS011;69136;52.614;6.976;2024-03-07T05:32:49;17.77;;;10.07;;
79668;SDS011;69136;52.614;6.976;2024-03-07T05:35:33;18.23;;;8.52;;
79668;SDS011;69136;52.614;6.976;2024-03-07T05:38:17;18.05;;;8.98;;
79668;SDS011;69136;52.614;6.976;2024-03-07T05:41:02;17.30;;;9.27;;
79668;SDS011;69136;52.614;6.976;2024-03-07T05:43:46;17.10;;;8.63;;
79668;SDS011;69136;52.614;6.976;2024-03-07T05:46:29;17.13;;;9.35;;
79668;SDS011;69136;52.614;6.976;2024-03-07T05:49:13;19.50;;;9.45;;
79668;SDS011;69136;52.614;6.976;2024-03-07T05:51:58;19.15;;;9.52;;
79668;SDS011;69136;52.614;6.976;2024-03-07T05:54:42;19.20;;;8.90;;
79668;SDS011;69136;52.614;6.976;2024-03-07T05:57:27;18.83;;;9.20;;
79668;SDS011;69136;52.614;6.976;2024-03-07T06:00:12;17.25;;;8.98;;
79668;SDS011;69136;52.614;6.976;2024-03-07T06:02:58;18.92;;;10.05;;
79668;SDS011;69136;52.614;6.976;2024-03-07T06:05:42;17.30;;;9.68;;
79668;SDS011;69136;52.614;6.976;2024-03-07T06:08:27;18.88;;;10.70;;
79668;SDS011;69136;52.614;6.976;2024-03-07T06:11:12;18.42;;;9.73;;
79668;SDS011;69136;52.614;6.976;2024-03-07T06:13:56;20.67;;;10.63;;
79668;SDS011;69136;52.614;6.976;2024-03-07T06:16:42;21.27;;;10.32;;
79668;SDS011;69136;52.614;6.976;2024-03-07T06:19:26;19.60;;;10.43;;
79668;SDS011;69136;52.614;6.976;2024-03-07T06:22:10;20.00;;;10.15;;
79668;SDS011;69136;52.614;6.976;2024-03-07T06:24:54;19.70;;;10.10;;
79668;SDS011;69136;52.614;6.976;2024-03-07T06:27:38;18.48;;;10.00;;
79668;SDS011;69136;52.614;6.976;2024-03-07T06:30:32;16.45;;;8.90;;
79668;SDS011;69136;52.614;6.976;2024-03-07T06:33:16;19.17;;;10.32;;
79668;SDS011;69136;52.614;6.976;2024-03-07T06:36:04;23.75;;;11.30;;
79668;SDS011;69136;52.614;6.976;2024-03-07T06:38:48;19.50;;;10.50;;
79668;SDS011;69136;52.614;6.976;2024-03-07T06:41:33;22.92;;;10.80;;
79668;SDS011;69136;52.614;6.976;2024-03-07T06:44:18;26.20;;;11.57;;
79668;SDS011;69136;52.614;6.976;2024-03-07T06:47:06;23.10;;;10.77;;
79668;SDS011;69136;52.614;6.976;2024-03-07T06:49:51;20.10;;;10.52;;
79668;SDS011;69136;52.614;6.976;2024-03-07T06:52:37;20.27;;;10.90;;
79668;SDS011;69136;52.614;6.976;2024-03-07T06:55:21;21.80;;;11.18;;
79668;SDS011;69136;52.614;6.976;2024-03-07T06:58:05;20.83;;;11.13;;
79668;SDS011;69136;52.614;6.976;2024-03-07T07:00:50;18.75;;;10.77;;
79668;SDS011;69136;52.614;6.976;2024-03-07T07:03:42;19.98;;;10.32;;
79668;SDS011;69136;52.614;6.976;2024-03-07T07:06:32;23.52;;;12.27;;
79668;SDS011;69136;52.614;6.976;2024-03-07T07:09:17;22.88;;;12.75;;
79668;SDS011;69136;52.614;6.976;2024-03-07T07:12:02;18.88;;;10.77;;
79668;SDS011;69136;52.614;6.976;2024-03-07T07:14:47;20.58;;;11.90;;
79668;SDS011;69136;52.614;6.976;2024-03-07T07:17:31;25.23;;;11.95;;
79668;SDS011;69136;52.614;6.976;2024-03-07T07:20:15;22.95;;;12.55;;
79668;SDS011;69136;52.614;6.976;2024-03-07T07:23:00;22.42;;;11.63;;
79668;SDS011;69136;52.614;6.976;2024-03-07T07:25:47;25.42;;;11.73;;
79668;SDS011;69136;52.614;6.976;2024-03-07T07:28:31;21.58;;;11.27;;
79668;SDS011;69136;52.614;6.976;2024-03-07T07:31:15;22.25;;;12.15;;
79668;SDS011;69136;52.614;6.976;2024-03-07T07:34:00;24.33;;;12.80;;
79668;SDS011;69136;52.614;6.976;2024-03-07T07:36:45;24.92;;;11.90;;
79668;SDS011;69136;52.614;6.976;2024-03-07T07:39:29;20.83;;;12.00;;
79668;SDS011;69136;52.614;6.976;2024-03-07T07:42:12;25.80;;;12.95;;
79668;SDS011;69136;52.614;6.976;2024-03-07T07:47:44;23.20;;;11.57;;
79668;SDS011;69136;52.614;6.976;2024-03-07T07:50:29;24.05;;;12.85;;
79668;SDS011;69136;52.614;6.976;2024-03-07T07:53:13;27.50;;;13.10;;
79668;SDS011;69136;52.614;6.976;2024-03-07T07:55:57;25.65;;;13.45;;
79668;SDS011;69136;52.614;6.976;2024-03-07T07:58:41;26.00;;;13.32;;
79668;SDS011;69136;52.614;6.976;2024-03-07T08:01:25;23.40;;;12.35;;
79668;SDS011;69136;52.614;6.976;2024-03-07T08:04:09;25.33;;;13.45;;
79668;SDS011;69136;52.614;6.976;2024-03-07T08:06:53;27.05;;;13.73;;
79668;SDS011;69136;52.614;6.976;2024-03-07T08:09:38;27.30;;;13.45;;
79668;SDS011;69136;52.614;6.976;2024-03-07T08:12:21;26.73;;;14.07;;
79668;SDS011;69136;52.614;6.976;2024-03-07T08:15:06;25.38;;;13.20;;
79668;SDS011;69136;52.614;6.976;2024-03-07T08:17:52;27.27;;;14.20;;
79668;SDS011;69136;52.614;6.976;2024-03-07T08:20:36;27.38;;;13.48;;
79668;SDS011;69136;52.614;6.976;2024-03-07T08:23:20;29.85;;;15.05;;
79668;SDS011;69136;52.614;6.976;2024-03-07T08:26:06;27.02;;;14.07;;
79668;SDS011;69136;52.614;6.976;2024-03-07T08:28:51;33.42;;;15.10;;
79668;SDS011;69136;52.614;6.976;2024-03-07T08:31:35;35.72;;;16.67;;
79668;SDS011;69136;52.614;6.976;2024-03-07T08:34:19;33.35;;;15.23;;
79668;SDS011;69136;52.614;6.976;2024-03-07T08:37:03;33.10;;;14.95;;
79668;SDS011;69136;52.614;6.976;2024-03-07T08:39:48;32.80;;;15.60;;
79668;SDS011;69136;52.614;6.976;2024-03-07T08:42:33;31.98;;;15.30;;
79668;SDS011;69136;52.614;6.976;2024-03-07T08:45:18;36.22;;;15.32;;
79668;SDS011;69136;52.614;6.976;2024-03-07T08:48:05;27.40;;;14.07;;
79668;SDS011;69136;52.614;6.976;2024-03-07T08:50:52;27.63;;;13.02;;
79668;SDS011;69136;52.614;6.976;2024-03-07T08:53:36;28.52;;;13.00;;
79668;SDS011;69136;52.614;6.976;2024-03-07T08:56:20;24.15;;;12.48;;
79668;SDS011;69136;52.614;6.976;2024-03-07T08:59:04;27.13;;;13.10;;
79668;SDS011;69136;52.614;6.976;2024-03-07T09:01:48;25.85;;;12.27;;
79668;SDS011;69136;52.614;6.976;2024-03-07T09:04:32;27.63;;;13.25;;
79668;SDS011;69136;52.614;6.976;2024-03-07T09:07:16;23.35;;;12.55;;
79668;SDS011;69136;52.614;6.976;2024-03-07T09:10:01;26.40;;;12.23;;
79668;SDS011;69136;52.614;6.976;2024-03-07T09:12:46;25.42;;;12.60;;
79668;SDS011;69136;52.614;6.976;2024-03-07T09:15:33;27.38;;;12.82;;
79668;SDS011;69136;52.614;6.976;2024-03-07T09:18:17;22.05;;;10.98;;
79668;SDS011;69136;52.614;6.976;2024-03-07T09:21:02;26.75;;;12.13;;
79668;SDS011;69136;52.614;6.976;2024-03-07T09:23:47;29.10;;;12.88;;
79668;SDS011;69136;52.614;6.976;2024-03-07T09:26:31;26.15;;;12.77;;
79668;SDS011;69136;52.614;6.976;2024-03-07T09:29:16;26.27;;;13.80;;
79668;SDS011;69136;52.614;6.976;2024-03-07T09:32:03;24.77;;;11.63;;
79668;SDS011;69136;52.614;6.976;2024-03-07T09:34:47;29.73;;;13.60;;
79668;SDS011;69136;52.614;6.976;2024-03-07T09:37:31;31.17;;;14.35;;
79668;SDS011;69136;52.614;6.976;2024-03-07T09:40:15;27.88;;;12.88;;
79668;SDS011;69136;52.614;6.976;2024-03-07T09:42:59;27.13;;;14.38;;
79668;SDS011;69136;52.614;6.976;2024-03-07T09:45:44;27.73;;;12.88;;
79668;SDS011;69136;52.614;6.976;2024-03-07T09:48:31;25.35;;;13.15;;
79668;SDS011;69136;52.614;6.976;2024-03-07T09:51:16;26.70;;;12.98;;
79668;SDS011;69136;52.614;6.976;2024-03-07T09:54:00;28.77;;;13.93;;
79668;SDS011;69136;52.614;6.976;2024-03-07T09:56:45;24.10;;;11.60;;
79668;SDS011;69136;52.614;6.976;2024-03-07T09:59:30;26.17;;;14.25;;
79668;SDS011;69136;52.614;6.976;2024-03-07T10:02:16;26.77;;;13.02;;
79668;SDS011;69136;52.614;6.976;2024-03-07T10:05:02;26.38;;;12.65;;
79668;SDS011;69136;52.614;6.976;2024-03-07T10:07:48;25.92;;;12.35;;
79668;SDS011;69136;52.614;6.976;2024-03-07T10:10:33;26.40;;;12.90;;
79668;SDS011;69136;52.614;6.976;2024-03-07T10:13:16;24.17;;;12.70;;
79668;SDS011;69136;52.614;6.976;2024-03-07T10:16:02;24.30;;;13.52;;
79668;SDS011;69136;52.614;6.976;2024-03-07T10:18:48;21.40;;;11.82;;
79668;SDS011;69136;52.614;6.976;2024-03-07T10:21:34;22.92;;;11.70;;
79668;SDS011;69136;52.614;6.976;2024-03-07T10:24:23;22.95;;;12.32;;
79668;SDS011;69136;52.614;6.976;2024-03-07T10:27:07;24.60;;;13.25;;
79668;SDS011;69136;52.614;6.976;2024-03-07T10:29:52;24.20;;;12.50;;
79668;SDS011;69136;52.614;6.976;2024-03-07T10:32:36;20.42;;;11.35;;
79668;SDS011;69136;52.614;6.976;2024-03-07T10:35:21;25.13;;;13.13;;
79668;SDS011;69136;52.614;6.976;2024-03-07T10:38:08;23.20;;;12.27;;
79668;SDS011;69136;52.614;6.976;2024-03-07T10:40:55;22.65;;;11.73;;
79668;SDS011;69136;52.614;6.976;2024-03-07T10:43:40;26.05;;;12.52;;
79668;SDS011;69136;52.614;6.976;2024-03-07T10:46:27;22.00;;;11.60;;
79668;SDS011;69136;52.614;6.976;2024-03-07T10:49:13;20.17;;;11.32;;
79668;SDS011;69136;52.614;6.976;2024-03-07T10:52:06;22.65;;;11.05;;
79668;SDS011;69136;52.614;6.976;2024-03-07T10:55:08;21.85;;;11.60;;
79668;SDS011;69136;52.614;6.976;2024-03-07T10:58:15;22.33;;;11.02;;
79668;SDS011;69136;52.614;6.976;2024-03-07T11:01:01;20.88;;;10.70;;
79668;SDS011;69136;52.614;6.976;2024-03-07T11:03:47;22.73;;;11.43;;
79668;SDS011;69136;52.614;6.976;2024-03-07T11:06:33;19.90;;;11.45;;
79668;SDS011;69136;52.614;6.976;2024-03-07T11:09:18;21.80;;;11.38;;
79668;SDS011;69136;52.614;6.976;2024-03-07T11:12:08;22.13;;;11.23;;
79668;SDS011;69136;52.614;6.976;2024-03-07T11:14:55;22.27;;;11.73;;
79668;SDS011;69136;52.614;6.976;2024-03-07T11:17:42;22.42;;;11.07;;
79668;SDS011;69136;52.614;6.976;2024-03-07T11:20:26;19.92;;;10.57;;
79668;SDS011;69136;52.614;6.976;2024-03-07T11:23:29;21.27;;;10.65;;
79668;SDS011;69136;52.614;6.976;2024-03-07T11:26:16;21.38;;;11.23;;
79668;SDS011;69136;52.614;6.976;2024-03-07T11:29:01;20.02;;;10.65;;
79668;SDS011;69136;52.614;6.976;2024-03-07T11:31:45;21.08;;;10.27;;
79668;SDS011;69136;52.614;6.976;2024-03-07T11:34:29;21.98;;;10.70;;
79668;SDS011;69136;52.614;6.976;2024-03-07T11:37:24;21.98;;;11.30;;
79668;SDS011;69136;52.614;6.976;2024-03-07T11:43:11;20.80;;;10.70;;
79668;SDS011;69136;52.614;6.976;2024-03-07T11:45:56;29.23;;;13.80;;
79668;SDS011;69136;52.614;6.976;2024-03-07T11:48:41;24.58;;;11.63;;
79668;SDS011;69136;52.614;6.976;2024-03-07T11:51:25;27.25;;;12.88;;
79668;SDS011;69136;52.614;6.976;2024-03-07T11:54:13;27.45;;;11.85;;
79668;SDS011;69136;52.614;6.976;2024-03-07T11:56:58;26.05;;;11.90;;
79668;SDS011;69136;52.614;6.976;2024-03-07T11:59:42;29.40;;;13.18;;
79668;SDS011;69136;52.614;6.976;2024-03-07T12:02:29;27.73;;;12.77;;
79668;SDS011;69136;52.614;6.976;2024-03-07T12:05:14;34.08;;;13.38;;
79668;SDS011;69136;52.614;6.976;2024-03-07T12:08:01;30.48;;;13.68;;
79668;SDS011;69136;52.614;6.976;2024-03-07T12:10:45;33.40;;;14.73;;
79668;SDS011;69136;52.614;6.976;2024-03-07T12:13:29;29.80;;;12.82;;
79668;SDS011;69136;52.614;6.976;2024-03-07T12:16:13;30.13;;;13.75;;
79668;SDS011;69136;52.614;6.976;2024-03-07T12:21:41;29.92;;;13.02;;
79668;SDS011;69136;52.614;6.976;2024-03-07T12:24:26;32.50;;;13.88;;
79668;SDS011;69136;52.614;6.976;2024-03-07T12:27:11;30.40;;;13.25;;
79668;SDS011;69136;52.614;6.976;2024-03-07T12:29:56;32.13;;;13.30;;
79668;SDS011;69136;52.614;6.976;2024-03-07T12:32:46;30.95;;;13.32;;
79668;SDS011;69136;52.614;6.976;2024-03-07T12:35:34;30.77;;;13.73;;
79668;SDS011;69136;52.614;6.976;2024-03-07T12:38:18;31.90;;;14.57;;
79668;SDS011;69136;52.614;6.976;2024-03-07T12:41:04;29.42;;;12.63;;
79668;SDS011;69136;52.614;6.976;2024-03-07T12:43:57;31.75;;;13.32;;
79668;SDS011;69136;52.614;6.976;2024-03-07T12:46:41;25.67;;;12.07;;
79668;SDS011;69136;52.614;6.976;2024-03-07T12:49:26;27.83;;;12.82;;
79668;SDS011;69136;52.614;6.976;2024-03-07T12:52:11;32.83;;;13.48;;
79668;SDS011;69136;52.614;6.976;2024-03-07T12:54:59;28.02;;;12.60;;
79668;SDS011;69136;52.614;6.976;2024-03-07T12:57:43;29.67;;;12.90;;
79668;SDS011;69136;52.614;6.976;2024-03-07T13:00:28;30.00;;;13.63;;
79668;SDS011;69136;52.614;6.976;2024-03-07T13:03:14;32.55;;;13.45;;
79668;SDS011;69136;52.614;6.976;2024-03-07T13:08:45;32.65;;;13.32;;
79668;SDS011;69136;52.614;6.976;2024-03-07T13:11:29;35.53;;;14.43;;
79668;SDS011;69136;52.614;6.976;2024-03-07T13:14:15;38.78;;;15.50;;
79668;SDS011;69136;52.614;6.976;2024-03-07T13:19:44;32.80;;;12.88;;
79668;SDS011;69136;52.614;6.976;2024-03-07T13:22:32;34.42;;;13.23;;
79668;SDS011;69136;52.614;6.976;2024-03-07T13:25:16;28.55;;;13.10;;
79668;SDS011;69136;52.614;6.976;2024-03-07T13:28:06;27.77;;;12.10;;
79668;SDS011;69136;52.614;6.976;2024-03-07T13:30:52;33.45;;;13.63;;
79668;SDS011;69136;52.614;6.976;2024-03-07T13:33:40;25.02;;;11.77;;
79668;SDS011;69136;52.614;6.976;2024-03-07T13:39:09;31.40;;;12.27;;
79668;SDS011;69136;52.614;6.976;2024-03-07T13:41:57;30.20;;;12.18;;
79668;SDS011;69136;52.614;6.976;2024-03-07T13:44:41;31.20;;;12.18;;
79668;SDS011;69136;52.614;6.976;2024-03-07T13:47:26;24.67;;;12.23;;
79668;SDS011;69136;52.614;6.976;2024-03-07T13:50:09;25.00;;;10.77;;
79668;SDS011;69136;52.614;6.976;2024-03-07T13:52:55;24.90;;;10.93;;
79668;SDS011;69136;52.614;6.976;2024-03-07T14:08:09;22.85;;;10.70;;
79668;SDS011;69136;52.614;6.976;2024-03-07T14:30:11;25.67;;;10.32;;
79668;SDS011;69136;52.614;6.976;2024-03-07T14:33:08;23.88;;;10.88;;
79668;SDS011;69136;52.614;6.976;2024-03-07T14:36:00;24.35;;;10.38;;
79668;SDS011;69136;52.614;6.976;2024-03-07T14:38:51;28.27;;;11.82;;
79668;SDS011;69136;52.614;6.976;2024-03-07T14:41:51;20.88;;;11.63;;
79668;SDS011;69136;52.614;6.976;2024-03-07T14:44:37;26.30;;;11.05;;
79668;SDS011;69136;52.614;6.976;2024-03-07T14:47:24;24.08;;;10.25;;
79668;SDS011;69136;52.614;6.976;2024-03-07T14:50:09;20.35;;;10.82;;
79668;SDS011;69136;52.614;6.976;2024-03-07T14:55:38;22.52;;;10.40;;
79668;SDS011;69136;52.614;6.976;2024-03-07T14:58:23;24.92;;;11.10;;
79668;SDS011;69136;52.614;6.976;2024-03-07T15:01:07;22.88;;;10.10;;
79668;SDS011;69136;52.614;6.976;2024-03-07T15:03:51;21.25;;;9.90;;
79668;SDS011;69136;52.614;6.976;2024-03-07T15:09:19;22.20;;;10.30;;
79668;SDS011;69136;52.614;6.976;2024-03-07T15:12:03;21.65;;;10.57;;
79668;SDS011;69136;52.614;6.976;2024-03-07T15:14:50;23.02;;;10.65;;
79668;SDS011;69136;52.614;6.976;2024-03-07T15:17:35;25.15;;;10.68;;
79668;SDS011;69136;52.614;6.976;2024-03-07T15:20:18;21.48;;;9.77;;
79668;SDS011;69136;52.614;6.976;2024-03-07T15:23:05;24.73;;;11.07;;
79668;SDS011;69136;52.614;6.976;2024-03-07T15:25:50;23.60;;;10.82;;
79668;SDS011;69136;52.614;6.976;2024-03-07T15:28:34;23.30;;;10.68;;
79668;SDS011;69136;52.614;6.976;2024-03-07T15:31:19;23.02;;;10.98;;
79668;SDS011;69136;52.614;6.976;2024-03-07T15:34:03;21.45;;;10.32;;
79668;SDS011;69136;52.614;6.976;2024-03-07T15:36:47;20.58;;;10.48;;
79668;SDS011;69136;52.614;6.976;2024-03-07T15:39:43;22.48;;;9.75;;
79668;SDS011;69136;52.614;6.976;2024-03-07T15:42:31;25.35;;;10.90;;
79668;SDS011;69136;52.614;6.976;2024-03-07T15:48:00;23.23;;;10.32;;
79668;SDS011;69136;52.614;6.976;2024-03-07T15:50:48;24.90;;;10.15;;
79668;SDS011;69136;52.614;6.976;2024-03-07T15:53:33;23.17;;;10.30;;
79668;SDS011;69136;52.614;6.976;2024-03-07T15:56:18;22.88;;;11.02;;
79668;SDS011;69136;52.614;6.976;2024-03-07T15:59:02;24.23;;;10.80;;
79668;SDS011;69136;52.614;6.976;2024-03-07T16:04:30;23.65;;;10.52;;
79668;SDS011;69136;52.614;6.976;2024-03-07T16:07:14;20.52;;;9.88;;
79668;SDS011;69136;52.614;6.976;2024-03-07T16:12:42;22.73;;;11.10;;
79668;SDS011;69136;52.614;6.976;2024-03-07T16:15:26;22.65;;;10.82;;
79668;SDS011;69136;52.614;6.976;2024-03-07T16:18:12;21.27;;;9.13;;
79668;SDS011;69136;52.614;6.976;2024-03-07T16:20:58;21.48;;;10.57;;
79668;SDS011;69136;52.614;6.976;2024-03-07T16:23:42;20.80;;;10.80;;
79668;SDS011;69136;52.614;6.976;2024-03-07T16:29:16;22.15;;;9.93;;
79668;SDS011;69136;52.614;6.976;2024-03-07T16:34:44;20.30;;;10.07;;
79668;SDS011;69136;52.614;6.976;2024-03-07T16:37:29;21.42;;;10.02;;
79668;SDS011;69136;52.614;6.976;2024-03-07T16:40:13;20.95;;;9.80;;
79668;SDS011;69136;52.614;6.976;2024-03-07T16:43:02;18.17;;;8.77;;
79668;SDS011;69136;52.614;6.976;2024-03-07T16:45:51;19.20;;;9.82;;
79668;SDS011;69136;52.614;6.976;2024-03-07T16:48:36;18.60;;;9.25;;
79668;SDS011;69136;52.614;6.976;2024-03-07T16:51:21;17.40;;;8.55;;
79668;SDS011;69136;52.614;6.976;2024-03-07T16:54:05;19.90;;;9.55;;
79668;SDS011;69136;52.614;6.976;2024-03-07T16:56:49;18.73;;;9.27;;
79668;SDS011;69136;52.614;6.976;2024-03-07T16:59:33;19.88;;;10.30;;
79668;SDS011;69136;52.614;6.976;2024-03-07T17:02:18;18.05;;;9.02;;
79668;SDS011;69136;52.614;6.976;2024-03-07T17:05:07;17.77;;;9.98;;
79668;SDS011;69136;52.614;6.976;2024-03-07T17:08:02;21.50;;;10.05;;
79668;SDS011;69136;52.614;6.976;2024-03-07T17:10:48;19.50;;;9.88;;
79668;SDS011;69136;52.614;6.976;2024-03-07T17:13:34;23.45;;;10.90;;
79668;SDS011;69136;52.614;6.976;2024-03-07T17:16:22;21.38;;;10.13;;
79668;SDS011;69136;52.614;6.976;2024-03-07T17:19:07;20.25;;;10.02;;
79668;SDS011;69136;52.614;6.976;2024-03-07T17:21:54;18.77;;;9.65;;
79668;SDS011;69136;52.614;6.976;2024-03-07T17:24:38;21.55;;;10.15;;
79668;SDS011;69136;52.614;6.976;2024-03-07T17:30:06;20.35;;;9.65;;
79668;SDS011;69136;52.614;6.976;2024-03-07T17:32:51;22.77;;;9.90;;
79668;SDS011;69136;52.614;6.976;2024-03-07T17:35:35;21.83;;;10.55;;
79668;SDS011;69136;52.614;6.976;2024-03-07T17:38:24;19.58;;;9.35;;